Weather in selectable METAR weather stations

1) Select the Continent / Group:

[Europe]  [Asia]  [Africa]  [North America]  [South America]  
[Central America and Caribbean]  [Oceania]  [Antarctica]  
2) Select the Weather station (City):


METAR = CYBK 131427Z 36025KT 1 1/2SM -SN DRSN VCBLSN SCT012 OVC024 M07/M10 A3018 RMK SC3SC5 SLP222

STATIONCYBK
NAMEBaker Lake Arpt, NU, CN
OBSERVED13.05.2021 09:27 (13.05.2021 14:27 UTC), 3 min ago
TEMPERATURE-7.0°C ( 19°F)
WINDCHILL-17.4 °C (1 °F)
WINDN (360 degrees) at 29 MPH (25 knots; 12.9 m/s)
HUMIDITY79%
PRESSURE1022 hPa
CONDITIONSlight snow, low drifting snow, blowing snow in vicinity
Click here to search the weather station or to give the station identifier
(four-character ICAO Location Indicator) for weather data.